Aviation Digital Data Service (ADDS)

Output produced by METARs form (1557 UTC 23 August 2017)
found at http://aviationweather.gov/adds/metars/
 
KCAK 231120Z 2312/2412 31005KT P6SM SCT050 
     FM231900 30010KT P6SM BKN050 
     FM240100 30006KT P6SM BKN100